createdAt,value
2022-07-26T00:00:16.695Z,99.90
2022-07-26T00:02:47.917Z,99.90
2022-07-26T00:05:16.439Z,99.90
2022-07-26T00:07:43.914Z,99.90
2022-07-26T00:10:11.321Z,99.90
2022-07-26T00:12:38.451Z,99.90
2022-07-26T00:15:06.943Z,99.90
2022-07-26T00:17:34.116Z,99.90
2022-07-26T00:20:01.045Z,99.90
2022-07-26T00:22:39.485Z,99.90
2022-07-26T00:25:08.865Z,99.90
2022-07-26T00:27:37.523Z,99.90
2022-07-26T00:30:11.319Z,99.90
2022-07-26T00:32:38.902Z,99.90
2022-07-26T00:35:06.696Z,99.90
2022-07-26T00:37:33.660Z,99.90
2022-07-26T00:40:00.650Z,99.90
2022-07-26T00:42:27.536Z,99.90
2022-07-26T00:44:54.549Z,99.90
2022-07-26T00:47:21.492Z,99.90
2022-07-26T00:49:50.093Z,99.90
2022-07-26T00:52:17.660Z,99.90
2022-07-26T00:54:46.007Z,99.90
2022-07-26T00:57:14.169Z,99.90
2022-07-26T00:59:42.000Z,99.90
2022-07-26T01:02:10.141Z,99.90
2022-07-26T01:04:39.948Z,99.90
2022-07-26T01:07:15.070Z,99.90
2022-07-26T01:09:43.569Z,99.90
2022-07-26T01:12:10.975Z,99.90
2022-07-26T01:14:38.208Z,99.90
2022-07-26T01:17:06.361Z,99.90
2022-07-26T01:19:33.271Z,99.90
2022-07-26T01:22:00.203Z,99.90
2022-07-26T01:24:27.147Z,99.90
2022-07-26T01:26:55.714Z,99.90
2022-07-26T01:29:23.479Z,99.90
2022-07-26T01:32:04.058Z,99.90
2022-07-26T01:34:31.128Z,99.90
2022-07-26T01:36:58.568Z,99.90
2022-07-26T01:39:25.503Z,99.90
2022-07-26T01:41:52.893Z,99.90
2022-07-26T01:44:19.832Z,99.90
2022-07-26T01:46:46.727Z,99.90
2022-07-26T01:49:13.774Z,99.90
2022-07-26T01:51:40.770Z,99.90
2022-07-26T01:54:08.044Z,99.90
2022-07-26T01:56:35.525Z,99.90
2022-07-26T01:59:02.854Z,99.90
2022-07-26T02:01:39.024Z,99.90
2022-07-26T02:04:30.087Z,99.90
2022-07-26T02:06:57.036Z,99.90
2022-07-26T02:09:24.076Z,99.90
2022-07-26T02:11:53.199Z,99.90
2022-07-26T02:14:26.058Z,99.90
2022-07-26T02:16:59.978Z,99.90
2022-07-26T02:19:30.689Z,99.90
2022-07-26T02:21:57.702Z,99.90
2022-07-26T02:24:28.691Z,99.90
2022-07-26T02:26:56.731Z,99.90
2022-07-26T02:29:24.020Z,99.90
2022-07-26T02:31:51.226Z,99.90
2022-07-26T02:34:18.261Z,99.90
2022-07-26T02:36:45.768Z,99.90
2022-07-26T02:39:13.026Z,99.90
2022-07-26T02:41:39.968Z,99.90
2022-07-26T02:44:08.250Z,99.90
2022-07-26T02:46:35.860Z,99.90
2022-07-26T02:49:03.106Z,99.90
2022-07-26T02:51:30.325Z,99.90
2022-07-26T02:53:57.210Z,99.90
2022-07-26T02:56:24.495Z,99.90
2022-07-26T02:58:51.391Z,99.90
2022-07-26T03:01:18.458Z,99.90
2022-07-26T03:03:50.361Z,99.90
2022-07-26T03:06:19.085Z,99.90
2022-07-26T03:08:46.531Z,99.90
2022-07-26T03:11:13.582Z,99.90
2022-07-26T03:13:42.005Z,99.90
2022-07-26T03:16:09.071Z,99.90
2022-07-26T03:18:36.339Z,99.90
2022-07-26T03:21:03.456Z,99.90
2022-07-26T03:23:33.499Z,99.90
2022-07-26T03:26:02.000Z,99.90
2022-07-26T03:28:33.237Z,99.90
2022-07-26T03:31:00.266Z,99.90
2022-07-26T03:33:27.273Z,99.90
2022-07-26T03:35:54.168Z,99.90
2022-07-26T03:38:21.932Z,99.90
2022-07-26T03:40:48.860Z,99.90
2022-07-26T03:43:15.717Z,99.90
2022-07-26T03:45:42.866Z,99.90
2022-07-26T03:48:09.779Z,99.90
2022-07-26T03:50:37.049Z,99.90
2022-07-26T03:53:04.210Z,99.90
2022-07-26T03:56:00.165Z,99.90
2022-07-26T03:58:27.093Z,99.90
2022-07-26T04:00:53.996Z,99.90
2022-07-26T04:03:22.752Z,99.90
2022-07-26T04:05:49.804Z,99.90
2022-07-26T04:08:19.582Z,99.90
2022-07-26T04:10:53.401Z,99.90
2022-07-26T04:13:20.644Z,99.90
2022-07-26T04:15:48.036Z,99.90
2022-07-26T04:18:15.063Z,99.90
2022-07-26T04:20:42.828Z,99.90
2022-07-26T04:23:11.506Z,99.90
2022-07-26T04:25:41.382Z,99.90
2022-07-26T04:28:09.745Z,99.90
2022-07-26T04:30:36.802Z,99.90
2022-07-26T04:33:04.513Z,99.90
2022-07-26T04:35:31.942Z,99.90
2022-07-26T04:37:59.232Z,99.90
2022-07-26T04:40:29.266Z,99.90
2022-07-26T04:42:57.015Z,99.90
2022-07-26T04:45:23.915Z,99.90
2022-07-26T04:47:51.222Z,99.90
2022-07-26T04:50:19.669Z,99.90
2022-07-26T04:52:47.247Z,99.90
2022-07-26T04:55:15.806Z,99.90
2022-07-26T04:57:43.074Z,99.90
2022-07-26T05:00:27.992Z,99.90
2022-07-26T05:02:57.236Z,99.90
2022-07-26T05:05:25.642Z,99.90
2022-07-26T05:08:04.319Z,99.90
2022-07-26T05:10:36.676Z,99.90
2022-07-26T05:13:06.474Z,99.90
2022-07-26T05:15:35.684Z,99.90
2022-07-26T05:18:23.379Z,99.90
2022-07-26T05:20:51.199Z,99.90
2022-07-26T05:23:20.001Z,99.90
2022-07-26T05:25:47.234Z,99.90
2022-07-26T05:28:14.263Z,99.90
2022-07-26T05:30:41.260Z,99.90
2022-07-26T05:35:49.383Z,99.90
2022-07-26T05:38:16.315Z,99.90
2022-07-26T05:40:47.209Z,99.90
2022-07-26T05:43:20.444Z,99.90
2022-07-26T05:45:47.515Z,99.90
2022-07-26T05:48:14.434Z,99.90
2022-07-26T05:50:41.310Z,99.90
2022-07-26T05:53:08.177Z,99.90
2022-07-26T05:55:40.850Z,99.90
2022-07-26T05:58:08.481Z,99.90
2022-07-26T06:00:35.640Z,99.90
2022-07-26T06:03:22.312Z,99.90
2022-07-26T06:05:54.456Z,99.90
2022-07-26T06:08:22.261Z,99.90
2022-07-26T06:10:50.128Z,99.90
2022-07-26T06:13:17.824Z,99.90
2022-07-26T06:15:49.120Z,99.90
2022-07-26T06:18:16.085Z,99.90
2022-07-26T06:20:44.663Z,99.90
2022-07-26T06:23:12.057Z,99.90
2022-07-26T06:25:39.141Z,99.90
2022-07-26T06:28:08.497Z,99.90
2022-07-26T06:30:39.126Z,99.90
2022-07-26T06:33:07.588Z,99.90
2022-07-26T06:35:36.143Z,99.90
2022-07-26T06:38:05.114Z,99.90
2022-07-26T06:40:33.281Z,99.90
2022-07-26T06:43:04.321Z,99.90
2022-07-26T06:45:33.150Z,99.90
2022-07-26T06:48:00.172Z,99.90
2022-07-26T06:50:27.111Z,99.90
2022-07-26T06:52:54.016Z,99.90
2022-07-26T06:55:21.063Z,99.90
2022-07-26T06:57:49.961Z,99.90
2022-07-26T07:00:18.298Z,99.90
2022-07-26T07:02:45.270Z,99.90
2022-07-26T07:05:12.612Z,99.90
2022-07-26T07:07:39.715Z,99.90
2022-07-26T07:10:09.518Z,99.90
2022-07-26T07:12:36.518Z,99.90
2022-07-26T07:15:03.822Z,99.90
2022-07-26T07:17:30.771Z,99.90
2022-07-26T07:19:57.739Z,99.90
2022-07-26T07:22:24.624Z,99.90
2022-07-26T07:24:51.679Z,99.90
2022-07-26T07:27:18.661Z,99.90
2022-07-26T07:29:47.899Z,99.90
2022-07-26T07:32:18.046Z,99.90
2022-07-26T07:34:47.535Z,97.80
2022-07-26T07:37:15.323Z,96.60
2022-07-26T07:39:42.691Z,96.50
2022-07-26T07:42:09.892Z,96.00
2022-07-26T07:44:36.787Z,94.90
2022-07-26T07:47:04.105Z,93.30
2022-07-26T07:49:31.875Z,93.40
2022-07-26T07:51:58.827Z,93.30
2022-07-26T07:54:25.809Z,93.20
2022-07-26T07:56:56.371Z,92.30
2022-07-26T07:59:24.164Z,91.40
2022-07-26T08:01:51.324Z,90.50
2022-07-26T08:04:18.458Z,91.30
2022-07-26T08:06:50.269Z,91.40
2022-07-26T08:09:19.253Z,91.50
2022-07-26T08:11:50.913Z,91.40
2022-07-26T08:14:19.016Z,91.50
2022-07-26T08:16:46.487Z,88.40
2022-07-26T08:19:15.497Z,86.50
2022-07-26T08:21:43.093Z,85.80
2022-07-26T08:24:10.948Z,85.50
2022-07-26T08:26:38.380Z,85.60
2022-07-26T08:29:05.761Z,84.40
2022-07-26T08:31:32.799Z,84.30
2022-07-26T08:33:59.978Z,83.20
2022-07-26T08:36:32.392Z,82.20
2022-07-26T08:39:00.599Z,82.20
2022-07-26T08:41:28.349Z,80.30
2022-07-26T08:43:55.272Z,80.80
2022-07-26T08:46:28.164Z,81.90
2022-07-26T08:48:58.490Z,82.60
2022-07-26T08:51:26.304Z,84.30
2022-07-26T08:54:00.618Z,84.00
2022-07-26T08:56:31.980Z,85.80
2022-07-26T08:58:58.907Z,87.00
2022-07-26T09:01:25.930Z,85.30
2022-07-26T09:03:52.934Z,82.80
2022-07-26T09:06:26.515Z,81.50
2022-07-26T09:09:11.253Z,80.10
2022-07-26T09:11:38.508Z,79.80
2022-07-26T09:14:06.672Z,78.60
2022-07-26T09:16:39.315Z,76.90
2022-07-26T09:19:21.471Z,74.30
2022-07-26T09:21:48.734Z,73.30
2022-07-26T09:24:36.451Z,74.50
2022-07-26T09:27:06.335Z,75.80
2022-07-26T09:30:06.642Z,78.20
2022-07-26T09:32:34.003Z,74.90
2022-07-26T09:35:45.962Z,73.50
2022-07-26T09:38:15.534Z,73.90
2022-07-26T09:40:43.078Z,73.70
2022-07-26T09:43:19.904Z,73.30
2022-07-26T09:46:05.070Z,75.00
2022-07-26T09:48:59.298Z,76.50
2022-07-26T09:51:41.827Z,76.20
2022-07-26T09:54:10.774Z,73.90
2022-07-26T09:56:53.365Z,72.60
2022-07-26T09:59:22.649Z,71.80
2022-07-26T10:01:51.777Z,71.60
2022-07-26T10:04:19.884Z,71.10
2022-07-26T10:06:47.604Z,70.40
2022-07-26T10:09:15.895Z,69.20
2022-07-26T10:11:46.180Z,70.00
2022-07-26T10:14:37.836Z,69.70
2022-07-26T10:17:31.577Z,70.40
2022-07-26T10:20:02.568Z,70.20
2022-07-26T10:22:35.314Z,70.60
2022-07-26T10:25:17.452Z,71.80
2022-07-26T10:27:45.910Z,71.00
2022-07-26T10:30:22.671Z,69.40
2022-07-26T10:33:03.126Z,68.40
2022-07-26T10:35:53.754Z,66.80
2022-07-26T10:38:26.634Z,66.60
2022-07-26T10:41:06.190Z,67.50
2022-07-26T10:43:45.236Z,67.70
2022-07-26T10:46:23.501Z,67.10
2022-07-26T10:49:13.019Z,65.80
2022-07-26T10:51:47.089Z,65.90
2022-07-26T10:54:20.441Z,65.80
2022-07-26T10:59:54.879Z,65.50
2022-07-26T11:02:22.980Z,65.70
2022-07-26T11:04:50.293Z,67.00
2022-07-26T11:07:17.292Z,68.20
2022-07-26T11:09:44.143Z,69.30
2022-07-26T11:12:18.064Z,70.40
2022-07-26T11:14:48.447Z,71.60
2022-07-26T11:17:28.442Z,72.50
2022-07-26T11:19:56.093Z,73.20
2022-07-26T11:22:31.681Z,73.40
2022-07-26T11:24:58.622Z,74.40
2022-07-26T11:27:25.581Z,75.70
2022-07-26T11:29:52.776Z,76.80
2022-07-26T11:32:23.605Z,76.40
2022-07-26T11:35:01.099Z,77.00
2022-07-26T11:37:28.469Z,78.10
2022-07-26T11:39:55.784Z,79.20
2022-07-26T11:42:22.899Z,78.30
2022-07-26T11:44:50.542Z,77.50
2022-07-26T11:47:25.614Z,77.50
2022-07-26T11:50:11.630Z,77.80
2022-07-26T11:52:40.142Z,77.50
2022-07-26T11:55:07.572Z,76.60
2022-07-26T11:57:34.498Z,76.50
2022-07-26T12:00:02.084Z,76.70
2022-07-26T12:02:30.665Z,76.50
2022-07-26T12:05:19.772Z,76.40
2022-07-26T12:07:58.882Z,77.20
2022-07-26T12:10:26.673Z,77.20
2022-07-26T12:13:11.027Z,77.00
2022-07-26T12:15:45.651Z,77.30
2022-07-26T12:18:30.873Z,77.50
2022-07-26T12:21:04.142Z,77.70
2022-07-26T12:23:48.170Z,78.10
2022-07-26T12:26:27.103Z,79.90
2022-07-26T12:28:55.572Z,81.00
2022-07-26T12:31:23.842Z,81.60
2022-07-26T12:33:50.926Z,82.20
2022-07-26T12:36:28.090Z,82.70
2022-07-26T12:38:59.837Z,83.40
2022-07-26T12:41:40.256Z,84.70
2022-07-26T12:44:11.817Z,84.80
2022-07-26T12:46:39.940Z,86.40
2022-07-26T12:49:07.048Z,86.00
2022-07-26T12:51:34.115Z,86.60
2022-07-26T12:54:01.092Z,89.20
2022-07-26T12:56:27.977Z,90.30
2022-07-26T12:59:01.045Z,90.90
2022-07-26T13:01:30.157Z,92.40
2022-07-26T13:03:57.279Z,94.90
2022-07-26T13:06:24.318Z,98.20
2022-07-26T13:08:51.182Z,99.90
2022-07-26T13:11:18.174Z,99.90
2022-07-26T13:13:45.108Z,99.90
2022-07-26T13:16:12.533Z,99.90
2022-07-26T13:18:39.712Z,99.90
2022-07-26T13:21:06.802Z,99.90
2022-07-26T13:23:35.048Z,99.90
2022-07-26T13:26:03.672Z,99.90
2022-07-26T13:28:31.375Z,99.90
2022-07-26T13:30:58.378Z,99.90
2022-07-26T13:33:25.396Z,99.90
2022-07-26T13:35:52.273Z,99.90
2022-07-26T13:38:20.320Z,99.90
2022-07-26T13:40:47.396Z,99.90
2022-07-26T13:43:14.886Z,99.90
2022-07-26T13:45:42.057Z,99.90
2022-07-26T13:48:09.218Z,99.90
2022-07-26T13:50:36.186Z,99.90
2022-07-26T13:53:03.418Z,99.90
2022-07-26T13:55:30.279Z,99.90
2022-07-26T13:57:58.103Z,99.90
2022-07-26T14:00:27.496Z,99.90
2022-07-26T14:02:56.907Z,99.90
2022-07-26T14:05:24.304Z,99.90
2022-07-26T14:07:51.642Z,99.90
2022-07-26T14:10:19.913Z,99.90
2022-07-26T14:12:47.969Z,99.90
2022-07-26T14:15:21.188Z,99.90
2022-07-26T14:17:49.395Z,99.90
2022-07-26T14:20:17.354Z,99.90
2022-07-26T14:22:44.858Z,99.90
2022-07-26T14:25:12.477Z,99.90
2022-07-26T14:27:39.452Z,99.90
2022-07-26T14:30:07.050Z,99.90
2022-07-26T14:32:33.920Z,99.90
2022-07-26T14:35:00.829Z,99.90
2022-07-26T14:37:41.438Z,99.90
2022-07-26T14:40:13.275Z,99.90
2022-07-26T14:42:40.324Z,99.90
2022-07-26T14:45:08.531Z,99.90
2022-07-26T14:47:35.730Z,99.90
2022-07-26T14:50:06.438Z,99.90
2022-07-26T14:52:36.837Z,99.90
2022-07-26T14:55:04.331Z,99.90
2022-07-26T14:57:31.238Z,99.90
2022-07-26T14:59:59.306Z,99.90
2022-07-26T15:02:26.727Z,99.90
2022-07-26T15:04:53.664Z,99.90
2022-07-26T15:07:20.699Z,99.90
2022-07-26T15:09:47.581Z,99.90
2022-07-26T15:12:14.532Z,99.90
2022-07-26T15:14:45.515Z,99.90
2022-07-26T15:17:13.522Z,99.90
2022-07-26T15:19:41.107Z,99.90
2022-07-26T15:22:08.581Z,99.90
2022-07-26T15:24:39.701Z,99.90
2022-07-26T15:27:07.282Z,99.90
2022-07-26T15:29:36.018Z,99.90
2022-07-26T15:32:03.870Z,99.90
2022-07-26T15:34:31.274Z,99.90
2022-07-26T15:36:58.431Z,99.90
2022-07-26T15:39:25.378Z,99.90
2022-07-26T15:41:52.409Z,99.90
2022-07-26T15:44:23.813Z,99.90
2022-07-26T15:46:53.088Z,99.90
2022-07-26T15:49:20.121Z,99.90
2022-07-26T15:51:47.606Z,99.90
2022-07-26T15:54:16.262Z,99.90
2022-07-26T15:56:43.714Z,99.90
2022-07-26T15:59:10.738Z,99.90
2022-07-26T16:01:38.072Z,99.90
2022-07-26T16:04:05.853Z,99.90
2022-07-26T16:06:33.872Z,99.90
2022-07-26T16:09:19.410Z,99.90
2022-07-26T16:11:47.163Z,99.90
2022-07-26T16:14:14.517Z,99.90
2022-07-26T16:16:41.567Z,99.90
2022-07-26T16:19:08.802Z,99.90
2022-07-26T16:21:37.143Z,99.90
2022-07-26T16:24:07.174Z,99.90
2022-07-26T16:26:35.275Z,99.90
2022-07-26T16:29:02.767Z,99.90
2022-07-26T16:31:30.554Z,99.90
2022-07-26T16:33:57.478Z,99.90
2022-07-26T16:36:24.432Z,99.90
2022-07-26T16:38:51.409Z,99.90
2022-07-26T16:41:18.305Z,99.90
2022-07-26T16:43:45.305Z,99.90
2022-07-26T16:46:12.250Z,99.90
2022-07-26T16:48:39.232Z,99.90
2022-07-26T16:51:06.255Z,99.90
2022-07-26T16:53:33.211Z,99.90
2022-07-26T16:56:00.200Z,99.90
2022-07-26T16:58:27.838Z,99.90
2022-07-26T17:00:55.150Z,99.90
2022-07-26T17:03:22.100Z,99.90
2022-07-26T17:05:49.091Z,99.90
2022-07-26T17:08:16.111Z,99.90
2022-07-26T17:10:43.828Z,99.90
2022-07-26T17:13:10.974Z,99.90
2022-07-26T17:15:37.933Z,99.90
2022-07-26T17:18:04.859Z,99.90
2022-07-26T17:20:31.866Z,99.90
2022-07-26T17:22:58.778Z,99.90
2022-07-26T17:25:25.705Z,99.90
2022-07-26T17:27:53.112Z,99.90
2022-07-26T17:30:19.999Z,99.90
2022-07-26T17:32:47.137Z,99.90
2022-07-26T17:35:14.148Z,99.90
2022-07-26T17:37:41.093Z,99.90
2022-07-26T17:40:09.285Z,99.90
2022-07-26T17:42:37.025Z,99.90
2022-07-26T17:45:07.256Z,99.90
2022-07-26T17:47:34.164Z,99.90
2022-07-26T17:52:50.820Z,99.90
2022-07-26T17:55:19.117Z,99.90
2022-07-26T17:57:47.911Z,99.90
2022-07-26T18:00:15.726Z,99.90
2022-07-26T18:02:42.773Z,99.90
2022-07-26T18:05:11.233Z,99.90
2022-07-26T18:07:38.999Z,99.90
2022-07-26T18:10:06.564Z,99.90
2022-07-26T18:12:33.629Z,99.90
2022-07-26T18:15:00.560Z,99.90
2022-07-26T18:17:27.529Z,99.90
2022-07-26T18:19:54.443Z,99.90
2022-07-26T18:22:21.572Z,99.90
2022-07-26T18:24:48.419Z,99.90
2022-07-26T18:27:15.295Z,99.90
2022-07-26T18:29:42.215Z,99.90
2022-07-26T18:32:09.178Z,99.90
2022-07-26T18:34:36.035Z,99.90
2022-07-26T18:37:02.966Z,99.90
2022-07-26T18:39:32.946Z,99.90
2022-07-26T18:42:00.429Z,99.90
2022-07-26T18:44:27.386Z,99.90
2022-07-26T18:46:56.234Z,99.90
2022-07-26T18:49:23.777Z,99.90
2022-07-26T18:52:00.686Z,99.90
2022-07-26T18:54:32.462Z,99.90
2022-07-26T18:56:59.336Z,99.90
2022-07-26T18:59:26.252Z,99.90
2022-07-26T19:01:53.266Z,99.90
2022-07-26T19:04:21.550Z,99.90
2022-07-26T19:06:49.754Z,99.90
2022-07-26T19:09:16.763Z,99.90
2022-07-26T19:11:45.858Z,99.90
2022-07-26T19:14:13.299Z,99.90
2022-07-26T19:16:40.290Z,99.90
2022-07-26T19:19:07.171Z,99.90
2022-07-26T19:21:34.014Z,99.90
2022-07-26T19:24:00.882Z,99.90
2022-07-26T19:26:28.157Z,99.90
2022-07-26T19:28:55.071Z,99.90
2022-07-26T19:31:22.534Z,99.90
2022-07-26T19:33:49.569Z,99.90
2022-07-26T19:36:22.567Z,99.90
2022-07-26T19:38:53.898Z,99.90
2022-07-26T19:41:20.909Z,99.90
2022-07-26T19:43:47.853Z,99.90
2022-07-26T19:46:14.859Z,99.90
2022-07-26T19:48:41.875Z,99.90
2022-07-26T19:51:08.863Z,99.90
2022-07-26T19:53:36.099Z,99.90
2022-07-26T19:56:03.679Z,99.90
2022-07-26T19:58:30.968Z,99.90
2022-07-26T20:00:58.039Z,99.90
2022-07-26T20:03:25.049Z,99.90
2022-07-26T20:05:53.780Z,99.90
2022-07-26T20:08:21.136Z,99.90
2022-07-26T20:10:48.117Z,99.90
2022-07-26T20:13:15.218Z,99.90
2022-07-26T20:15:42.260Z,99.90
2022-07-26T20:18:10.440Z,99.90
2022-07-26T20:20:37.395Z,99.90
2022-07-26T20:23:06.167Z,99.90
2022-07-26T20:25:33.599Z,99.90
2022-07-26T20:28:00.458Z,99.90
2022-07-26T20:30:27.891Z,99.90
2022-07-26T20:32:55.051Z,99.90
2022-07-26T20:35:22.104Z,99.90
2022-07-26T20:37:49.070Z,99.90
2022-07-26T20:40:18.053Z,99.90
2022-07-26T20:42:45.538Z,99.90
2022-07-26T20:45:14.917Z,99.90
2022-07-26T20:47:43.047Z,99.90
2022-07-26T20:50:11.732Z,99.90
2022-07-26T20:52:39.077Z,99.90
2022-07-26T20:55:06.643Z,99.90
2022-07-26T20:57:33.566Z,99.90
2022-07-26T21:00:00.590Z,99.90
2022-07-26T21:02:27.677Z,99.90
2022-07-26T21:04:54.600Z,99.90
2022-07-26T21:07:21.491Z,99.90
2022-07-26T21:09:48.354Z,99.90
2022-07-26T21:12:15.265Z,99.90
2022-07-26T21:14:42.139Z,99.90
2022-07-26T21:17:11.880Z,99.90
2022-07-26T21:19:39.596Z,99.90
2022-07-26T21:22:07.285Z,99.90
2022-07-26T21:24:37.220Z,99.90
2022-07-26T21:27:05.456Z,99.90
2022-07-26T21:29:38.109Z,99.90
2022-07-26T21:32:06.706Z,99.90
2022-07-26T21:34:36.398Z,99.90
2022-07-26T21:37:04.773Z,99.90
2022-07-26T21:39:31.863Z,99.90
2022-07-26T21:41:58.715Z,99.90
2022-07-26T21:44:26.813Z,99.90
2022-07-26T21:46:54.998Z,99.90
2022-07-26T21:49:22.050Z,99.90
2022-07-26T21:51:49.286Z,99.90
2022-07-26T21:54:16.475Z,99.90
2022-07-26T21:56:43.654Z,99.90
2022-07-26T21:59:10.736Z,99.90
2022-07-26T22:01:37.836Z,99.90
2022-07-26T22:04:05.149Z,99.90
2022-07-26T22:06:32.052Z,99.90
2022-07-26T22:08:59.020Z,99.90
2022-07-26T22:11:25.934Z,99.90
2022-07-26T22:13:53.116Z,99.90
2022-07-26T22:16:20.070Z,99.90
2022-07-26T22:18:47.240Z,99.90
2022-07-26T22:21:14.383Z,99.90
2022-07-26T22:23:41.332Z,99.90
2022-07-26T22:26:08.249Z,99.90
2022-07-26T22:28:35.132Z,99.90
2022-07-26T22:31:02.336Z,99.90
2022-07-26T22:33:29.336Z,99.90
2022-07-26T22:35:56.294Z,99.90
2022-07-26T22:38:23.237Z,99.90
2022-07-26T22:40:50.471Z,99.90
2022-07-26T22:43:17.415Z,99.90
2022-07-26T22:45:44.374Z,99.90
2022-07-26T22:48:11.485Z,99.90
2022-07-26T22:50:38.498Z,99.90
2022-07-26T22:53:05.590Z,99.90
2022-07-26T22:55:32.495Z,99.90
2022-07-26T22:57:59.724Z,99.90
2022-07-26T23:00:26.739Z,99.90
2022-07-26T23:02:53.774Z,99.90
2022-07-26T23:05:21.085Z,99.90
2022-07-26T23:07:48.488Z,99.90
2022-07-26T23:10:16.022Z,99.90
2022-07-26T23:12:42.986Z,99.90
2022-07-26T23:15:10.394Z,99.90
2022-07-26T23:17:37.784Z,99.90
2022-07-26T23:20:06.496Z,99.90
2022-07-26T23:22:34.083Z,99.90
2022-07-26T23:25:01.175Z,99.90
2022-07-26T23:27:28.090Z,99.90
2022-07-26T23:29:55.491Z,99.90
2022-07-26T23:32:22.646Z,99.90
2022-07-26T23:34:49.556Z,99.90
2022-07-26T23:37:16.413Z,99.90
2022-07-26T23:39:43.292Z,99.90
2022-07-26T23:42:10.250Z,99.90
2022-07-26T23:44:37.084Z,99.90
2022-07-26T23:47:04.386Z,99.90
2022-07-26T23:49:31.393Z,99.90
2022-07-26T23:51:58.373Z,99.90
2022-07-26T23:54:25.227Z,99.90
2022-07-26T23:56:52.116Z,99.90
2022-07-26T23:59:19.058Z,99.90
